sensor_id;sensor_type;location;lat;lon;timestamp;temperature;humidity
64685;DHT22;51109;47.414;18.954;2023-06-10T00:00:47;17.90;99.90
64685;DHT22;51109;47.414;18.954;2023-06-10T00:03:13;17.90;99.90
64685;DHT22;51109;47.414;18.954;2023-06-10T00:05:40;18.00;99.90
64685;DHT22;51109;47.414;18.954;2023-06-10T00:08:07;18.00;99.90
64685;DHT22;51109;47.414;18.954;2023-06-10T00:10:36;18.00;99.90
64685;DHT22;51109;47.414;18.954;2023-06-10T00:13:06;18.00;99.90
64685;DHT22;51109;47.414;18.954;2023-06-10T00:15:37;18.00;99.90
64685;DHT22;51109;47.414;18.954;2023-06-10T00:18:03;18.10;99.90
64685;DHT22;51109;47.414;18.954;2023-06-10T00:20:30;18.00;99.90
64685;DHT22;51109;47.414;18.954;2023-06-10T00:22:57;17.90;99.90
64685;DHT22;51109;47.414;18.954;2023-06-10T00:25:25;17.90;99.90
64685;DHT22;51109;47.414;18.954;2023-06-10T00:27:51;17.90;99.90
64685;DHT22;51109;47.414;18.954;2023-06-10T00:30:17;17.90;99.90
64685;DHT22;51109;47.414;18.954;2023-06-10T00:32:43;17.80;99.90
64685;DHT22;51109;47.414;18.954;2023-06-10T00:35:09;17.80;99.90
64685;DHT22;51109;47.414;18.954;2023-06-10T00:37:35;17.80;99.90
64685;DHT22;51109;47.414;18.954;2023-06-10T00:40:02;17.80;99.90
64685;DHT22;51109;47.414;18.954;2023-06-10T00:42:28;17.90;99.90
64685;DHT22;51109;47.414;18.954;2023-06-10T00:44:55;17.90;99.90
64685;DHT22;51109;47.414;18.954;2023-06-10T00:47:21;17.90;99.90
64685;DHT22;51109;47.414;18.954;2023-06-10T00:49:49;18.10;99.90
64685;DHT22;51109;47.414;18.954;2023-06-10T00:52:18;18.20;99.90
64685;DHT22;51109;47.414;18.954;2023-06-10T00:54:46;18.20;99.90
64685;DHT22;51109;47.414;18.954;2023-06-10T00:57:12;18.10;99.90
64685;DHT22;51109;47.414;18.954;2023-06-10T00:59:44;18.10;99.90
64685;DHT22;51109;47.414;18.954;2023-06-10T01:02:12;18.10;99.90
64685;DHT22;51109;47.414;18.954;2023-06-10T01:04:38;18.10;99.90
64685;DHT22;51109;47.414;18.954;2023-06-10T01:07:14;18.10;99.90
64685;DHT22;51109;47.414;18.954;2023-06-10T01:10:02;18.20;99.90
64685;DHT22;51109;47.414;18.954;2023-06-10T01:15:17;18.10;99.90
64685;DHT22;51109;47.414;18.954;2023-06-10T01:18:04;18.10;99.90
64685;DHT22;51109;47.414;18.954;2023-06-10T01:20:31;18.00;99.90
64685;DHT22;51109;47.414;18.954;2023-06-10T01:23:01;18.00;99.90
64685;DHT22;51109;47.414;18.954;2023-06-10T01:25:29;18.00;99.90
64685;DHT22;51109;47.414;18.954;2023-06-10T01:34:00;17.90;99.90
64685;DHT22;51109;47.414;18.954;2023-06-10T01:36:28;18.00;99.90
64685;DHT22;51109;47.414;18.954;2023-06-10T01:38:55;17.90;99.90
64685;DHT22;51109;47.414;18.954;2023-06-10T01:41:22;18.00;99.90
64685;DHT22;51109;47.414;18.954;2023-06-10T01:43:48;18.20;99.90
64685;DHT22;51109;47.414;18.954;2023-06-10T01:46:15;18.20;99.90
64685;DHT22;51109;47.414;18.954;2023-06-10T01:48:45;18.10;99.90
64685;DHT22;51109;47.414;18.954;2023-06-10T01:51:11;18.10;99.90
64685;DHT22;51109;47.414;18.954;2023-06-10T01:53:36;18.20;99.90
64685;DHT22;51109;47.414;18.954;2023-06-10T01:56:02;18.20;99.90
64685;DHT22;51109;47.414;18.954;2023-06-10T01:58:28;18.10;99.90
64685;DHT22;51109;47.414;18.954;2023-06-10T02:00:54;18.20;99.90
64685;DHT22;51109;47.414;18.954;2023-06-10T02:03:20;18.20;99.90
64685;DHT22;51109;47.414;18.954;2023-06-10T02:05:46;18.10;99.90
64685;DHT22;51109;47.414;18.954;2023-06-10T02:08:11;18.00;99.90
64685;DHT22;51109;47.414;18.954;2023-06-10T02:10:37;18.00;99.90
64685;DHT22;51109;47.414;18.954;2023-06-10T02:13:03;17.90;99.90
64685;DHT22;51109;47.414;18.954;2023-06-10T02:15:29;17.90;99.90
64685;DHT22;51109;47.414;18.954;2023-06-10T02:17:55;17.90;99.90
64685;DHT22;51109;47.414;18.954;2023-06-10T02:20:22;18.00;99.90
64685;DHT22;51109;47.414;18.954;2023-06-10T02:22:48;17.90;99.90
64685;DHT22;51109;47.414;18.954;2023-06-10T02:25:13;17.80;99.90
64685;DHT22;51109;47.414;18.954;2023-06-10T02:27:39;17.80;99.90
64685;DHT22;51109;47.414;18.954;2023-06-10T02:30:06;17.70;99.90
64685;DHT22;51109;47.414;18.954;2023-06-10T02:32:32;17.60;99.90
64685;DHT22;51109;47.414;18.954;2023-06-10T02:34:57;17.50;99.90
64685;DHT22;51109;47.414;18.954;2023-06-10T02:37:25;17.50;99.90
64685;DHT22;51109;47.414;18.954;2023-06-10T02:39:51;17.50;99.90
64685;DHT22;51109;47.414;18.954;2023-06-10T02:42:17;17.60;99.90
64685;DHT22;51109;47.414;18.954;2023-06-10T02:44:43;17.60;99.90
64685;DHT22;51109;47.414;18.954;2023-06-10T02:47:08;17.50;99.90
64685;DHT22;51109;47.414;18.954;2023-06-10T02:49:34;17.40;99.90
64685;DHT22;51109;47.414;18.954;2023-06-10T02:52:01;17.20;99.90
64685;DHT22;51109;47.414;18.954;2023-06-10T02:54:27;17.20;99.90
64685;DHT22;51109;47.414;18.954;2023-06-10T02:56:54;17.30;99.90
64685;DHT22;51109;47.414;18.954;2023-06-10T02:59:21;17.30;99.90
64685;DHT22;51109;47.414;18.954;2023-06-10T03:01:47;17.30;99.90
64685;DHT22;51109;47.414;18.954;2023-06-10T03:04:13;17.40;99.90
64685;DHT22;51109;47.414;18.954;2023-06-10T03:06:40;17.30;99.90
64685;DHT22;51109;47.414;18.954;2023-06-10T03:09:11;17.40;99.90
64685;DHT22;51109;47.414;18.954;2023-06-10T03:11:37;17.20;99.90
64685;DHT22;51109;47.414;18.954;2023-06-10T03:14:02;17.10;99.90
64685;DHT22;51109;47.414;18.954;2023-06-10T03:16:28;17.20;99.90
64685;DHT22;51109;47.414;18.954;2023-06-10T03:18:58;17.30;99.90
64685;DHT22;51109;47.414;18.954;2023-06-10T03:21:23;17.30;99.90
64685;DHT22;51109;47.414;18.954;2023-06-10T03:23:50;17.30;99.90
64685;DHT22;51109;47.414;18.954;2023-06-10T03:26:16;17.20;99.90
64685;DHT22;51109;47.414;18.954;2023-06-10T03:28:42;17.30;99.90
64685;DHT22;51109;47.414;18.954;2023-06-10T03:31:07;17.40;99.90
64685;DHT22;51109;47.414;18.954;2023-06-10T03:33:34;17.30;99.90
64685;DHT22;51109;47.414;18.954;2023-06-10T03:35:59;17.30;99.90
64685;DHT22;51109;47.414;18.954;2023-06-10T03:38:25;17.30;99.90
64685;DHT22;51109;47.414;18.954;2023-06-10T03:40:51;17.30;99.90
64685;DHT22;51109;47.414;18.954;2023-06-10T03:43:17;17.40;99.90
64685;DHT22;51109;47.414;18.954;2023-06-10T03:45:43;17.30;99.90
64685;DHT22;51109;47.414;18.954;2023-06-10T03:48:08;17.30;99.90
64685;DHT22;51109;47.414;18.954;2023-06-10T03:50:35;17.50;99.90
64685;DHT22;51109;47.414;18.954;2023-06-10T03:53:02;17.50;99.90
64685;DHT22;51109;47.414;18.954;2023-06-10T03:55:27;17.60;99.90
64685;DHT22;51109;47.414;18.954;2023-06-10T03:57:53;17.50;99.90
64685;DHT22;51109;47.414;18.954;2023-06-10T04:00:19;17.50;99.90
64685;DHT22;51109;47.414;18.954;2023-06-10T04:02:47;17.40;99.90
64685;DHT22;51109;47.414;18.954;2023-06-10T04:05:19;17.40;99.90
64685;DHT22;51109;47.414;18.954;2023-06-10T04:07:47;17.30;99.90
64685;DHT22;51109;47.414;18.954;2023-06-10T04:10:14;17.20;99.90
64685;DHT22;51109;47.414;18.954;2023-06-10T04:12:40;17.30;99.90
64685;DHT22;51109;47.414;18.954;2023-06-10T04:15:07;17.20;99.90
64685;DHT22;51109;47.414;18.954;2023-06-10T04:17:33;17.30;99.90
64685;DHT22;51109;47.414;18.954;2023-06-10T04:19:58;17.40;99.90
64685;DHT22;51109;47.414;18.954;2023-06-10T04:22:25;17.50;99.90
64685;DHT22;51109;47.414;18.954;2023-06-10T04:24:51;17.60;99.90
64685;DHT22;51109;47.414;18.954;2023-06-10T04:27:17;17.80;99.90
64685;DHT22;51109;47.414;18.954;2023-06-10T04:29:43;17.90;99.90
64685;DHT22;51109;47.414;18.954;2023-06-10T04:32:09;18.00;99.90
64685;DHT22;51109;47.414;18.954;2023-06-10T04:34:35;18.20;99.90
64685;DHT22;51109;47.414;18.954;2023-06-10T04:37:01;18.20;99.90
64685;DHT22;51109;47.414;18.954;2023-06-10T04:39:28;18.20;99.90
64685;DHT22;51109;47.414;18.954;2023-06-10T04:41:54;18.30;99.90
64685;DHT22;51109;47.414;18.954;2023-06-10T04:44:20;18.40;99.90
64685;DHT22;51109;47.414;18.954;2023-06-10T04:46:46;18.50;99.90
64685;DHT22;51109;47.414;18.954;2023-06-10T04:49:13;18.70;99.90
64685;DHT22;51109;47.414;18.954;2023-06-10T04:51:40;18.70;99.90
64685;DHT22;51109;47.414;18.954;2023-06-10T04:54:05;18.70;99.90
64685;DHT22;51109;47.414;18.954;2023-06-10T04:56:32;18.80;99.90
64685;DHT22;51109;47.414;18.954;2023-06-10T04:58:58;18.90;99.90
64685;DHT22;51109;47.414;18.954;2023-06-10T05:01:24;19.00;99.90
64685;DHT22;51109;47.414;18.954;2023-06-10T05:03:50;19.20;99.90
64685;DHT22;51109;47.414;18.954;2023-06-10T05:06:16;19.30;99.90
64685;DHT22;51109;47.414;18.954;2023-06-10T05:08:42;19.50;99.90
64685;DHT22;51109;47.414;18.954;2023-06-10T05:11:08;19.60;99.90
64685;DHT22;51109;47.414;18.954;2023-06-10T05:13:34;19.60;99.90
64685;DHT22;51109;47.414;18.954;2023-06-10T05:16:00;19.70;99.90
64685;DHT22;51109;47.414;18.954;2023-06-10T05:18:26;19.80;99.90
64685;DHT22;51109;47.414;18.954;2023-06-10T05:20:52;19.90;99.90
64685;DHT22;51109;47.414;18.954;2023-06-10T05:23:20;20.00;99.90
64685;DHT22;51109;47.414;18.954;2023-06-10T05:25:46;20.00;99.90
64685;DHT22;51109;47.414;18.954;2023-06-10T05:28:11;20.00;99.90
64685;DHT22;51109;47.414;18.954;2023-06-10T05:30:38;20.10;99.90
64685;DHT22;51109;47.414;18.954;2023-06-10T05:33:04;20.20;99.90
64685;DHT22;51109;47.414;18.954;2023-06-10T05:35:30;20.20;99.90
64685;DHT22;51109;47.414;18.954;2023-06-10T05:37:56;20.00;99.90
64685;DHT22;51109;47.414;18.954;2023-06-10T05:40:23;20.20;99.90
64685;DHT22;51109;47.414;18.954;2023-06-10T05:42:49;20.10;99.90
64685;DHT22;51109;47.414;18.954;2023-06-10T05:45:15;20.20;99.90
64685;DHT22;51109;47.414;18.954;2023-06-10T05:47:41;20.20;99.90
64685;DHT22;51109;47.414;18.954;2023-06-10T05:50:07;20.30;99.90
64685;DHT22;51109;47.414;18.954;2023-06-10T05:52:35;20.50;99.90
64685;DHT22;51109;47.414;18.954;2023-06-10T05:55:05;20.60;99.90
64685;DHT22;51109;47.414;18.954;2023-06-10T05:57:31;20.70;99.90
64685;DHT22;51109;47.414;18.954;2023-06-10T05:59:57;20.70;99.90
64685;DHT22;51109;47.414;18.954;2023-06-10T06:02:23;20.80;99.90
64685;DHT22;51109;47.414;18.954;2023-06-10T06:04:48;20.90;99.90
64685;DHT22;51109;47.414;18.954;2023-06-10T06:07:14;20.90;99.90
64685;DHT22;51109;47.414;18.954;2023-06-10T06:09:40;20.70;99.90
64685;DHT22;51109;47.414;18.954;2023-06-10T06:12:07;20.70;99.90
64685;DHT22;51109;47.414;18.954;2023-06-10T06:14:37;20.80;99.90
64685;DHT22;51109;47.414;18.954;2023-06-10T06:17:05;21.00;99.90
64685;DHT22;51109;47.414;18.954;2023-06-10T06:19:31;21.10;99.90
64685;DHT22;51109;47.414;18.954;2023-06-10T06:21:56;21.20;99.90
64685;DHT22;51109;47.414;18.954;2023-06-10T06:24:22;21.10;99.90
64685;DHT22;51109;47.414;18.954;2023-06-10T06:26:48;20.90;99.90
64685;DHT22;51109;47.414;18.954;2023-06-10T06:29:14;21.00;99.90
64685;DHT22;51109;47.414;18.954;2023-06-10T06:31:40;21.10;99.90
64685;DHT22;51109;47.414;18.954;2023-06-10T06:34:06;21.30;99.90
64685;DHT22;51109;47.414;18.954;2023-06-10T06:36:31;21.40;99.90
64685;DHT22;51109;47.414;18.954;2023-06-10T06:38:57;21.40;99.90
64685;DHT22;51109;47.414;18.954;2023-06-10T06:41:26;21.30;99.90
64685;DHT22;51109;47.414;18.954;2023-06-10T06:43:54;21.40;99.90
64685;DHT22;51109;47.414;18.954;2023-06-10T06:46:20;21.50;99.90
64685;DHT22;51109;47.414;18.954;2023-06-10T06:48:47;21.60;99.90
64685;DHT22;51109;47.414;18.954;2023-06-10T06:51:12;21.60;99.90
64685;DHT22;51109;47.414;18.954;2023-06-10T06:53:39;21.70;99.90
64685;DHT22;51109;47.414;18.954;2023-06-10T06:56:10;21.60;99.90
64685;DHT22;51109;47.414;18.954;2023-06-10T06:58:37;21.60;99.90
64685;DHT22;51109;47.414;18.954;2023-06-10T07:01:02;21.80;99.90
64685;DHT22;51109;47.414;18.954;2023-06-10T07:03:28;21.80;99.90
64685;DHT22;51109;47.414;18.954;2023-06-10T07:05:54;21.80;99.90
64685;DHT22;51109;47.414;18.954;2023-06-10T07:08:20;21.90;99.90
64685;DHT22;51109;47.414;18.954;2023-06-10T07:10:46;22.10;99.90
64685;DHT22;51109;47.414;18.954;2023-06-10T07:13:11;22.20;99.90
64685;DHT22;51109;47.414;18.954;2023-06-10T07:15:38;22.30;99.90
64685;DHT22;51109;47.414;18.954;2023-06-10T07:18:04;22.30;99.90
64685;DHT22;51109;47.414;18.954;2023-06-10T07:20:30;22.30;99.90
64685;DHT22;51109;47.414;18.954;2023-06-10T07:22:56;22.50;99.90
64685;DHT22;51109;47.414;18.954;2023-06-10T07:25:22;22.60;99.90
64685;DHT22;51109;47.414;18.954;2023-06-10T07:27:49;22.50;99.90
64685;DHT22;51109;47.414;18.954;2023-06-10T07:30:15;22.60;99.90
64685;DHT22;51109;47.414;18.954;2023-06-10T07:32:41;22.50;99.90
64685;DHT22;51109;47.414;18.954;2023-06-10T07:35:08;22.40;99.90
64685;DHT22;51109;47.414;18.954;2023-06-10T07:37:36;22.30;99.90
64685;DHT22;51109;47.414;18.954;2023-06-10T07:40:02;22.00;99.90
64685;DHT22;51109;47.414;18.954;2023-06-10T07:42:28;21.70;99.90
64685;DHT22;51109;47.414;18.954;2023-06-10T07:44:53;21.60;99.90
64685;DHT22;51109;47.414;18.954;2023-06-10T07:47:19;21.70;99.90
64685;DHT22;51109;47.414;18.954;2023-06-10T07:49:45;21.60;99.90
64685;DHT22;51109;47.414;18.954;2023-06-10T07:52:11;21.60;99.90
64685;DHT22;51109;47.414;18.954;2023-06-10T07:54:37;21.50;99.90
64685;DHT22;51109;47.414;18.954;2023-06-10T07:57:03;21.30;99.90
64685;DHT22;51109;47.414;18.954;2023-06-10T07:59:29;21.50;99.90
64685;DHT22;51109;47.414;18.954;2023-06-10T08:01:55;21.70;99.90
64685;DHT22;51109;47.414;18.954;2023-06-10T08:04:20;21.80;99.90
64685;DHT22;51109;47.414;18.954;2023-06-10T08:06:46;22.00;99.90
64685;DHT22;51109;47.414;18.954;2023-06-10T08:09:12;22.10;99.90
64685;DHT22;51109;47.414;18.954;2023-06-10T08:11:38;22.20;99.90
64685;DHT22;51109;47.414;18.954;2023-06-10T08:14:04;22.30;99.90
64685;DHT22;51109;47.414;18.954;2023-06-10T08:16:30;22.40;99.90
64685;DHT22;51109;47.414;18.954;2023-06-10T08:18:55;22.20;99.90
64685;DHT22;51109;47.414;18.954;2023-06-10T08:21:21;22.00;99.90
64685;DHT22;51109;47.414;18.954;2023-06-10T08:23:47;21.90;99.90
64685;DHT22;51109;47.414;18.954;2023-06-10T08:26:13;22.20;99.90
64685;DHT22;51109;47.414;18.954;2023-06-10T08:28:38;22.30;99.90
64685;DHT22;51109;47.414;18.954;2023-06-10T08:31:04;22.20;99.90
64685;DHT22;51109;47.414;18.954;2023-06-10T08:33:30;22.20;99.90
64685;DHT22;51109;47.414;18.954;2023-06-10T08:35:56;22.40;99.90
64685;DHT22;51109;47.414;18.954;2023-06-10T08:38:22;22.50;99.90
64685;DHT22;51109;47.414;18.954;2023-06-10T08:40:48;22.70;99.90
64685;DHT22;51109;47.414;18.954;2023-06-10T08:43:22;22.90;99.90
64685;DHT22;51109;47.414;18.954;2023-06-10T08:45:52;23.10;99.90
64685;DHT22;51109;47.414;18.954;2023-06-10T08:48:20;23.10;99.90
64685;DHT22;51109;47.414;18.954;2023-06-10T08:50:47;23.10;99.90
64685;DHT22;51109;47.414;18.954;2023-06-10T08:53:18;23.10;99.90
64685;DHT22;51109;47.414;18.954;2023-06-10T08:55:48;23.20;99.90
64685;DHT22;51109;47.414;18.954;2023-06-10T08:58:15;23.10;99.90
64685;DHT22;51109;47.414;18.954;2023-06-10T09:00:41;23.20;99.90
64685;DHT22;51109;47.414;18.954;2023-06-10T09:03:08;23.20;99.90
64685;DHT22;51109;47.414;18.954;2023-06-10T09:05:35;23.30;99.90
64685;DHT22;51109;47.414;18.954;2023-06-10T09:08:05;23.30;99.90
64685;DHT22;51109;47.414;18.954;2023-06-10T09:10:32;23.40;99.90
64685;DHT22;51109;47.414;18.954;2023-06-10T09:12:58;23.30;99.90
64685;DHT22;51109;47.414;18.954;2023-06-10T09:15:24;23.30;99.90
64685;DHT22;51109;47.414;18.954;2023-06-10T09:17:50;23.10;99.90
64685;DHT22;51109;47.414;18.954;2023-06-10T09:20:17;23.30;99.90
64685;DHT22;51109;47.414;18.954;2023-06-10T09:22:43;23.20;99.90
64685;DHT22;51109;47.414;18.954;2023-06-10T09:25:11;23.10;99.90
64685;DHT22;51109;47.414;18.954;2023-06-10T09:27:48;23.10;99.90
64685;DHT22;51109;47.414;18.954;2023-06-10T09:30:35;23.40;99.90
64685;DHT22;51109;47.414;18.954;2023-06-10T09:33:03;23.60;99.90
64685;DHT22;51109;47.414;18.954;2023-06-10T09:35:34;23.70;99.90
64685;DHT22;51109;47.414;18.954;2023-06-10T09:38:00;23.90;99.90
64685;DHT22;51109;47.414;18.954;2023-06-10T09:40:28;23.90;99.90
64685;DHT22;51109;47.414;18.954;2023-06-10T09:42:58;23.60;99.90
64685;DHT22;51109;47.414;18.954;2023-06-10T09:45:29;23.60;99.90
64685;DHT22;51109;47.414;18.954;2023-06-10T09:47:57;24.00;99.90
64685;DHT22;51109;47.414;18.954;2023-06-10T09:50:23;24.40;99.90
64685;DHT22;51109;47.414;18.954;2023-06-10T09:52:50;24.60;99.90
64685;DHT22;51109;47.414;18.954;2023-06-10T09:55:17;24.70;99.90
64685;DHT22;51109;47.414;18.954;2023-06-10T09:57:43;24.60;99.90
64685;DHT22;51109;47.414;18.954;2023-06-10T10:00:14;24.60;99.90
64685;DHT22;51109;47.414;18.954;2023-06-10T10:02:51;24.70;99.90
64685;DHT22;51109;47.414;18.954;2023-06-10T10:05:21;24.90;99.90
64685;DHT22;51109;47.414;18.954;2023-06-10T10:07:47;24.90;99.90
64685;DHT22;51109;47.414;18.954;2023-06-10T10:10:18;24.90;99.90
64685;DHT22;51109;47.414;18.954;2023-06-10T10:12:47;24.80;99.90
64685;DHT22;51109;47.414;18.954;2023-06-10T10:15:15;24.80;99.90
64685;DHT22;51109;47.414;18.954;2023-06-10T10:18:06;25.00;99.90
64685;DHT22;51109;47.414;18.954;2023-06-10T10:20:34;25.20;99.90
64685;DHT22;51109;47.414;18.954;2023-06-10T10:23:03;25.30;99.90
64685;DHT22;51109;47.414;18.954;2023-06-10T10:25:37;25.30;99.90
64685;DHT22;51109;47.414;18.954;2023-06-10T10:28:11;25.30;99.90
64685;DHT22;51109;47.414;18.954;2023-06-10T10:30:46;25.00;99.90
64685;DHT22;51109;47.414;18.954;2023-06-10T10:33:20;24.80;99.90
64685;DHT22;51109;47.414;18.954;2023-06-10T10:35:49;24.50;99.90
64685;DHT22;51109;47.414;18.954;2023-06-10T10:38:15;24.10;99.90
64685;DHT22;51109;47.414;18.954;2023-06-10T10:40:42;24.00;99.90
64685;DHT22;51109;47.414;18.954;2023-06-10T10:43:09;23.90;99.90
64685;DHT22;51109;47.414;18.954;2023-06-10T10:45:36;24.00;99.90
64685;DHT22;51109;47.414;18.954;2023-06-10T10:48:07;24.20;99.90
64685;DHT22;51109;47.414;18.954;2023-06-10T10:50:35;24.50;99.90
64685;DHT22;51109;47.414;18.954;2023-06-10T10:53:03;24.10;99.90
64685;DHT22;51109;47.414;18.954;2023-06-10T10:55:29;23.90;99.90
64685;DHT22;51109;47.414;18.954;2023-06-10T10:58:00;23.80;99.90
64685;DHT22;51109;47.414;18.954;2023-06-10T11:00:31;23.70;99.90
64685;DHT22;51109;47.414;18.954;2023-06-10T11:03:00;23.50;99.90
64685;DHT22;51109;47.414;18.954;2023-06-10T11:05:40;23.50;99.90
64685;DHT22;51109;47.414;18.954;2023-06-10T11:08:08;23.50;99.90
64685;DHT22;51109;47.414;18.954;2023-06-10T11:10:36;23.50;99.90
64685;DHT22;51109;47.414;18.954;2023-06-10T11:13:21;23.50;99.90
64685;DHT22;51109;47.414;18.954;2023-06-10T11:15:49;23.50;99.90
64685;DHT22;51109;47.414;18.954;2023-06-10T11:23:09;23.80;99.90
64685;DHT22;51109;47.414;18.954;2023-06-10T11:25:39;23.90;99.90
64685;DHT22;51109;47.414;18.954;2023-06-10T11:28:19;23.70;99.90
64685;DHT22;51109;47.414;18.954;2023-06-10T11:30:45;23.60;99.90
64685;DHT22;51109;47.414;18.954;2023-06-10T11:33:20;23.60;99.90
64685;DHT22;51109;47.414;18.954;2023-06-10T11:35:47;23.50;99.90
64685;DHT22;51109;47.414;18.954;2023-06-10T11:38:13;23.70;99.90
64685;DHT22;51109;47.414;18.954;2023-06-10T11:40:39;23.70;99.90
64685;DHT22;51109;47.414;18.954;2023-06-10T11:43:05;23.70;99.90
64685;DHT22;51109;47.414;18.954;2023-06-10T11:45:31;24.00;99.90
64685;DHT22;51109;47.414;18.954;2023-06-10T11:48:00;24.20;99.90
64685;DHT22;51109;47.414;18.954;2023-06-10T11:50:33;24.20;99.90
64685;DHT22;51109;47.414;18.954;2023-06-10T11:52:59;24.30;99.90
64685;DHT22;51109;47.414;18.954;2023-06-10T11:55:47;24.70;99.90
64685;DHT22;51109;47.414;18.954;2023-06-10T11:58:22;24.60;99.90
64685;DHT22;51109;47.414;18.954;2023-06-10T12:00:58;24.50;99.90
64685;DHT22;51109;47.414;18.954;2023-06-10T12:03:24;24.70;99.90
64685;DHT22;51109;47.414;18.954;2023-06-10T12:05:59;25.00;99.90
64685;DHT22;51109;47.414;18.954;2023-06-10T12:08:26;25.30;99.90
64685;DHT22;51109;47.414;18.954;2023-06-10T12:10:53;25.30;99.90
64685;DHT22;51109;47.414;18.954;2023-06-10T12:13:20;25.50;99.90
64685;DHT22;51109;47.414;18.954;2023-06-10T12:15:46;25.30;99.90
64685;DHT22;51109;47.414;18.954;2023-06-10T12:18:18;25.40;99.90
64685;DHT22;51109;47.414;18.954;2023-06-10T12:20:45;25.30;99.90
64685;DHT22;51109;47.414;18.954;2023-06-10T12:23:12;25.30;99.90
64685;DHT22;51109;47.414;18.954;2023-06-10T12:25:39;24.90;99.90
64685;DHT22;51109;47.414;18.954;2023-06-10T12:28:05;24.70;99.90
64685;DHT22;51109;47.414;18.954;2023-06-10T12:30:32;24.60;99.90
64685;DHT22;51109;47.414;18.954;2023-06-10T12:32:58;24.20;99.90
64685;DHT22;51109;47.414;18.954;2023-06-10T12:35:26;23.90;99.90
64685;DHT22;51109;47.414;18.954;2023-06-10T12:40:40;23.70;99.90
64685;DHT22;51109;47.414;18.954;2023-06-10T12:43:07;23.90;99.90
64685;DHT22;51109;47.414;18.954;2023-06-10T12:45:37;24.00;99.90
64685;DHT22;51109;47.414;18.954;2023-06-10T12:48:09;24.30;99.90
64685;DHT22;51109;47.414;18.954;2023-06-10T12:50:36;24.60;99.90
64685;DHT22;51109;47.414;18.954;2023-06-10T12:53:03;24.80;99.90
64685;DHT22;51109;47.414;18.954;2023-06-10T12:55:29;24.90;99.90
64685;DHT22;51109;47.414;18.954;2023-06-10T12:57:55;25.00;99.90
64685;DHT22;51109;47.414;18.954;2023-06-10T13:00:23;25.20;99.90
64685;DHT22;51109;47.414;18.954;2023-06-10T13:02:52;25.50;99.90
64685;DHT22;51109;47.414;18.954;2023-06-10T13:05:19;25.50;99.90
64685;DHT22;51109;47.414;18.954;2023-06-10T13:07:46;25.50;99.90
64685;DHT22;51109;47.414;18.954;2023-06-10T13:10:13;25.50;99.90
64685;DHT22;51109;47.414;18.954;2023-06-10T13:12:39;25.50;99.90
64685;DHT22;51109;47.414;18.954;2023-06-10T13:15:06;25.60;99.90
64685;DHT22;51109;47.414;18.954;2023-06-10T13:17:32;25.50;99.90
64685;DHT22;51109;47.414;18.954;2023-06-10T13:19:59;25.70;99.90
64685;DHT22;51109;47.414;18.954;2023-06-10T13:22:27;25.80;99.90
64685;DHT22;51109;47.414;18.954;2023-06-10T13:24:53;25.70;99.90
64685;DHT22;51109;47.414;18.954;2023-06-10T13:27:19;25.50;99.90
64685;DHT22;51109;47.414;18.954;2023-06-10T13:29:44;25.60;99.90
64685;DHT22;51109;47.414;18.954;2023-06-10T13:32:10;26.00;99.90
64685;DHT22;51109;47.414;18.954;2023-06-10T13:34:36;26.20;99.90
64685;DHT22;51109;47.414;18.954;2023-06-10T13:37:02;26.60;99.90
64685;DHT22;51109;47.414;18.954;2023-06-10T13:39:30;26.90;99.90
64685;DHT22;51109;47.414;18.954;2023-06-10T13:41:56;27.10;99.90
64685;DHT22;51109;47.414;18.954;2023-06-10T13:44:22;27.20;99.90
64685;DHT22;51109;47.414;18.954;2023-06-10T13:46:48;27.20;99.90
64685;DHT22;51109;47.414;18.954;2023-06-10T13:49:13;27.20;99.90
64685;DHT22;51109;47.414;18.954;2023-06-10T13:51:39;27.00;99.90
64685;DHT22;51109;47.414;18.954;2023-06-10T13:54:05;26.90;99.90
64685;DHT22;51109;47.414;18.954;2023-06-10T13:56:31;26.50;99.90
64685;DHT22;51109;47.414;18.954;2023-06-10T13:58:59;26.10;99.90
64685;DHT22;51109;47.414;18.954;2023-06-10T14:01:25;25.80;99.90
64685;DHT22;51109;47.414;18.954;2023-06-10T14:03:50;25.50;99.90
64685;DHT22;51109;47.414;18.954;2023-06-10T14:06:17;25.20;99.90
64685;DHT22;51109;47.414;18.954;2023-06-10T14:08:44;24.70;99.90
64685;DHT22;51109;47.414;18.954;2023-06-10T14:11:11;24.30;99.90
64685;DHT22;51109;47.414;18.954;2023-06-10T14:13:37;24.10;99.90
64685;DHT22;51109;47.414;18.954;2023-06-10T14:16:04;23.90;99.90
64685;DHT22;51109;47.414;18.954;2023-06-10T14:18:30;23.80;99.90
64685;DHT22;51109;47.414;18.954;2023-06-10T14:20:56;23.90;99.90
64685;DHT22;51109;47.414;18.954;2023-06-10T14:23:22;23.90;99.90
64685;DHT22;51109;47.414;18.954;2023-06-10T14:25:50;23.90;99.90
64685;DHT22;51109;47.414;18.954;2023-06-10T14:28:16;23.80;99.90
64685;DHT22;51109;47.414;18.954;2023-06-10T14:30:41;23.60;99.90
64685;DHT22;51109;47.414;18.954;2023-06-10T14:33:07;23.70;99.90
64685;DHT22;51109;47.414;18.954;2023-06-10T14:35:33;23.70;99.90
64685;DHT22;51109;47.414;18.954;2023-06-10T14:37:59;23.50;99.90
64685;DHT22;51109;47.414;18.954;2023-06-10T14:40:25;23.40;99.90
64685;DHT22;51109;47.414;18.954;2023-06-10T14:42:54;23.20;99.90
64685;DHT22;51109;47.414;18.954;2023-06-10T14:45:20;23.00;99.90
64685;DHT22;51109;47.414;18.954;2023-06-10T14:47:46;22.90;99.90
64685;DHT22;51109;47.414;18.954;2023-06-10T14:50:13;22.70;99.90
64685;DHT22;51109;47.414;18.954;2023-06-10T14:52:39;22.60;99.90
64685;DHT22;51109;47.414;18.954;2023-06-10T14:55:05;22.50;99.90
64685;DHT22;51109;47.414;18.954;2023-06-10T14:57:31;22.60;99.90
64685;DHT22;51109;47.414;18.954;2023-06-10T14:59:57;22.70;99.90
64685;DHT22;51109;47.414;18.954;2023-06-10T15:02:23;22.80;99.90
64685;DHT22;51109;47.414;18.954;2023-06-10T15:04:49;23.10;99.90
64685;DHT22;51109;47.414;18.954;2023-06-10T15:07:15;23.20;99.90
64685;DHT22;51109;47.414;18.954;2023-06-10T15:09:41;23.20;99.90
64685;DHT22;51109;47.414;18.954;2023-06-10T15:12:08;23.20;99.90
64685;DHT22;51109;47.414;18.954;2023-06-10T15:14:34;23.40;99.90
64685;DHT22;51109;47.414;18.954;2023-06-10T15:17:00;23.50;99.90
64685;DHT22;51109;47.414;18.954;2023-06-10T15:19:26;23.60;99.90
64685;DHT22;51109;47.414;18.954;2023-06-10T15:21:52;23.80;99.90
64685;DHT22;51109;47.414;18.954;2023-06-10T15:24:18;23.70;99.90
64685;DHT22;51109;47.414;18.954;2023-06-10T15:26:44;23.60;99.90
64685;DHT22;51109;47.414;18.954;2023-06-10T15:29:10;23.70;99.90
64685;DHT22;51109;47.414;18.954;2023-06-10T15:31:37;23.90;99.90